Detroit Lakes, MN

8:52 PM CDT on May 27, 2018 (GMT -0500)
Detroit Lakes

Weather History for KDTL - September, 2014

Change the Weather History Date:

Tuesday, September 2, 2014

  Actual Average Record
Temperature  
Mean Temperature 64 °F -  
Max Temperature 75 °F 75 °F 95 °F (1983)
Min Temperature 53 °F 49 °F 32 °F (1968)
Degree Days  
Heating Degree Days 1    
Growing Degree Days 14 (Base 50)    
Moisture  
Dew Point 53 °F    
Average Humidity 69    
Maximum Humidity 94    
Minimum Humidity 38    
Precipitation  
Precipitation 0.00 in - - ()
Sea Level Pressure  
Sea Level Pressure 29.82 in    
Wind  
Wind Speed 6 mph (SW)    
Max Wind Speed 17 mph    
Max Gust Speed 24 mph    
Visibility 10 miles    
Events      
Averages and records for this station are not official NWS values.
T = Trace of Precipitation, MM = Missing Value Source: NWS Daily Summary

Daily Weather History Graph

Daily Weather History Graph

Search for Another Location

Airport or City:

Astronomy

Sep. 02, 2014 Rise Set
Actual Time 6:44 AM CDT 8:00 PM CDT
Civil Twilight 6:13 AM CDT 8:32 PM CDT
Nautical Twilight 5:35 AM CDT 9:09 PM CDT
Astronomical Twilight 4:54 AM CDT 9:50 PM CDT
Moon 2:56 PM CDT (9/2) No Moon Set
Length of Visible Light 14h 19m
Length of Day
13h 16m
First Quarter, 53% of the Moon is Illuminated
Sep 2
First Quarter
Sep 8
Full
Sep 15
Last Quarter
Sep 24
New
Oct 1
First Quarter

Hourly Weather History & Observations

Time (CDT) Temp. Dew Point Humidity Pressure Visibility Wind Dir Wind Speed Gust Speed Precip Events Conditions
12:15 AM 55.4 °F 53.6 °F 94% 29.82 in 10.0 mi Calm Calm - N/A   Clear
12:36 AM 55.4 °F 53.6 °F 94% 29.82 in 10.0 mi South 3.5 mph - N/A   Clear
12:55 AM 53.6 °F 51.8 °F 94% 29.83 in 10.0 mi SSW 5.8 mph - N/A   Clear
1:15 AM 55.4 °F 53.6 °F 94% 29.83 in 10.0 mi SW 5.8 mph - N/A   Clear
1:36 AM 55.4 °F 53.6 °F 94% 29.83 in 10.0 mi SW 4.6 mph - N/A   Clear
1:55 AM 55.4 °F 53.6 °F 94% 29.83 in 10.0 mi SW 4.6 mph - N/A   Clear
2:15 AM 55.4 °F 53.6 °F 94% 29.83 in 10.0 mi SW 4.6 mph - N/A   Clear
2:34 AM 55.4 °F 53.6 °F 94% 29.83 in 10.0 mi SW 5.8 mph - N/A   Clear
2:55 AM 55.4 °F 53.6 °F 94% 29.83 in 10.0 mi WSW 5.8 mph - N/A   Clear
3:15 AM 55.4 °F 53.6 °F 94% 29.83 in 10.0 mi WSW 5.8 mph - N/A   Clear
3:35 AM 55.4 °F 53.6 °F 94% 29.83 in 10.0 mi WSW 3.5 mph - N/A   Clear
3:55 AM 55.4 °F 53.6 °F 94% 29.83 in 10.0 mi WSW 4.6 mph - N/A   Clear
4:15 AM 55.4 °F 53.6 °F 94% 29.83 in 10.0 mi WSW 4.6 mph - N/A   Clear
4:35 AM 55.4 °F 53.6 °F 94% 29.84 in 10.0 mi SW 4.6 mph - N/A   Clear
4:55 AM 55.4 °F 51.8 °F 88% 29.83 in 10.0 mi SW 4.6 mph - N/A   Clear
5:15 AM 55.4 °F 51.8 °F 88% 29.84 in 10.0 mi Calm Calm - N/A   Clear
5:35 AM 53.6 °F 51.8 °F 94% 29.83 in 10.0 mi SSW 3.5 mph - N/A   Clear
5:55 AM 53.6 °F 51.8 °F 94% 29.83 in 10.0 mi Calm Calm - N/A   Clear
6:15 AM 53.6 °F 51.8 °F 94% 29.83 in 10.0 mi Calm Calm - N/A   Clear
6:35 AM 53.6 °F 51.8 °F 94% 29.84 in 10.0 mi South 3.5 mph - N/A   Clear
6:55 AM 53.6 °F 51.8 °F 94% 29.84 in 10.0 mi SSW 3.5 mph - N/A   Clear
7:15 AM 55.4 °F 51.8 °F 88% 29.85 in 10.0 mi Calm Calm - N/A   Clear
7:35 AM 55.4 °F 51.8 °F 88% 29.85 in 10.0 mi SW 4.6 mph - N/A   Clear
7:55 AM 55.4 °F 51.8 °F 88% 29.85 in 10.0 mi SW 3.5 mph - N/A   Clear
8:15 AM 57.2 °F 51.8 °F 82% 29.85 in 10.0 mi SW 4.6 mph - N/A   Clear
8:36 AM 59.0 °F 51.8 °F 77% 29.86 in 10.0 mi SW 4.6 mph - N/A   Clear
8:55 AM 59.0 °F 53.6 °F 82% 29.86 in 10.0 mi SW 4.6 mph - N/A   Clear
9:15 AM 60.8 °F 53.6 °F 77% 29.86 in 10.0 mi WSW 5.8 mph - N/A   Clear
9:35 AM 60.8 °F 53.6 °F 77% 29.86 in 10.0 mi SW 5.8 mph - N/A   Clear
9:56 AM 62.6 °F 53.6 °F 72% 29.86 in 10.0 mi SW 5.8 mph - N/A   Clear
10:15 AM 64.4 °F 53.6 °F 68% 29.86 in 10.0 mi SW 6.9 mph - N/A   Clear
10:36 AM 64.4 °F 53.6 °F 68% 29.86 in 10.0 mi WSW 5.8 mph - N/A   Clear
10:55 AM 66.2 °F 53.6 °F 64% 29.86 in 10.0 mi WSW 10.4 mph - N/A   Clear
11:15 AM 68.0 °F 53.6 °F 60% 29.86 in 10.0 mi WSW 8.1 mph - N/A   Clear
11:36 AM 69.8 °F 53.6 °F 56% 29.85 in 10.0 mi WSW 8.1 mph - N/A   Clear
11:55 AM 69.8 °F 51.8 °F 53% 29.85 in 10.0 mi West 9.2 mph - N/A   Clear
12:15 PM 71.6 °F 51.8 °F 50% 29.85 in 10.0 mi SW 9.2 mph - N/A   Clear
12:36 PM 71.6 °F 51.8 °F 50% 29.85 in 10.0 mi SW 6.9 mph 16.1 mph N/A   Clear
12:55 PM 71.6 °F 51.8 °F 50% 29.85 in 10.0 mi SSW 10.4 mph - N/A   Clear
1:15 PM 71.6 °F 51.8 °F 50% 29.84 in 10.0 mi SW 10.4 mph - N/A   Clear
1:36 PM 71.6 °F 51.8 °F 50% 29.84 in 10.0 mi WSW 10.4 mph - N/A   Clear
1:55 PM 73.4 °F 53.6 °F 50% 29.84 in 10.0 mi SSW 12.7 mph 18.4 mph N/A   Clear
2:15 PM 73.4 °F 51.8 °F 47% 29.83 in 10.0 mi SW 11.5 mph - N/A   Clear
2:35 PM 73.4 °F 51.8 °F 47% 29.83 in 10.0 mi SW 15.0 mph 18.4 mph N/A   Clear
2:55 PM 73.4 °F 50.0 °F 44% 29.83 in 10.0 mi WSW 11.5 mph 19.6 mph N/A   Clear
3:16 PM 73.4 °F 51.8 °F 47% 29.83 in 10.0 mi SW 15.0 mph 18.4 mph N/A   Clear
3:35 PM 73.4 °F 51.8 °F 47% 29.82 in 10.0 mi SW 13.8 mph 18.4 mph N/A   Clear
3:55 PM 75.2 °F 50.0 °F 41% 29.81 in 10.0 mi SW 17.3 mph 21.9 mph N/A   Clear
4:15 PM 75.2 °F 50.0 °F 41% 29.81 in 10.0 mi SW 15.0 mph 24.2 mph N/A   Clear
4:35 PM 75.2 °F 50.0 °F 41% 29.81 in 10.0 mi SW 13.8 mph 18.4 mph N/A   Clear
4:55 PM 75.2 °F 51.8 °F 44% 29.80 in 10.0 mi SW 13.8 mph 19.6 mph N/A   Clear
5:15 PM 75.2 °F 50.0 °F 41% 29.79 in 10.0 mi SW 9.2 mph - N/A   Clear
5:55 PM 75.2 °F 48.2 °F 38% 29.78 in 10.0 mi SW 15.0 mph 18.4 mph N/A   Clear
6:15 PM 75.2 °F 51.8 °F 44% 29.78 in 10.0 mi SW 11.5 mph 17.3 mph N/A   Clear
6:35 PM 75.2 °F 51.8 °F 44% 29.78 in 10.0 mi SW 10.4 mph 18.4 mph N/A   Clear
6:55 PM 73.4 °F 51.8 °F 47% 29.78 in 10.0 mi SW 9.2 mph 16.1 mph N/A   Clear
7:15 PM 71.6 °F 53.6 °F 53% 29.77 in 10.0 mi SW 9.2 mph - N/A   Clear
7:36 PM 71.6 °F 53.6 °F 53% 29.77 in 10.0 mi SSW 8.1 mph - N/A   Clear
7:55 PM 69.8 °F 53.6 °F 56% 29.78 in 10.0 mi SSW 8.1 mph - N/A   Clear
8:15 PM 69.8 °F 55.4 °F 60% 29.78 in 10.0 mi SSW 8.1 mph - N/A   Clear
8:35 PM 69.8 °F 55.4 °F 60% 29.78 in 10.0 mi SSW 9.2 mph - N/A   Clear
8:55 PM 68.0 °F 55.4 °F 64% 29.78 in 10.0 mi SSW 8.1 mph - N/A   Clear
9:15 PM 68.0 °F 55.4 °F 64% 29.78 in 10.0 mi SSW 10.4 mph - N/A   Clear
9:36 PM 68.0 °F 55.4 °F 64% 29.79 in 10.0 mi SW 9.2 mph - N/A   Clear
9:55 PM 68.0 °F 55.4 °F 64% 29.78 in 10.0 mi SW 10.4 mph - N/A   Clear
10:15 PM 68.0 °F 55.4 °F 64% 29.78 in 10.0 mi SW 6.9 mph - N/A   Clear
10:36 PM 68.0 °F 53.6 °F 60% 29.79 in 10.0 mi SW 9.2 mph - N/A   Clear
10:55 PM 68.0 °F 55.4 °F 64% 29.79 in 10.0 mi SW 9.2 mph - N/A   Clear
11:15 PM 66.2 °F 55.4 °F 68% 29.79 in 10.0 mi SW 9.2 mph - N/A   Clear
11:36 PM 66.2 °F 55.4 °F 68% 29.80 in 10.0 mi SW 9.2 mph - N/A   Clear
11:55 PM 64.4 °F 55.4 °F 73% 29.81 in 10.0 mi WSW 6.9 mph - N/A   Clear